Flight Track Log - Related Links

Times and Time Zones

All times are in EDT time to prevent confusion due to time zone crossing. See the DAL1562 flight status page for this flight to view local times or setup timezone preferences in your user account.

Time Position Orientation Groundspeed Altitude Reporting Facility
EDT Latitude Longitude Course Direction KTS MPH feet Rate Location/Type
Mon 05:04:37 PM 39.8781 -75.2125 270° West 151 174 1,500  Level FAA TRACON SMA TRACON (SMA)
Mon 05:04:57 PM 39.8847 -75.1903 69° East 179 206 2,300 2,341 Climbing FAA TRACON SMA TRACON (SMA)
Mon 05:05:18 PM 39.8914 -75.1703 67° East 194 223 3,100 2,550 Climbing FAA TRACON SMA TRACON (SMA)
Mon 05:05:37 PM 39.9022 -75.1525 52° Northeast 226 260 4,000 3,300 Climbing FAA TRACON SMA TRACON (SMA)
Mon 05:05:58 PM 39.9289 -75.1447 13° North 268 308 5,300 3,143 Climbing FAA TRACON SMA TRACON (SMA)
Mon 05:06:19 PM 39.9475 -75.1556 336° Northwest 257 296 6,200 3,366 Climbing FAA TRACON SMA TRACON (SMA)
Mon 05:06:39 PM 39.9631 -75.1914 300° West 282 325 7,600 3,846 Climbing FAA TRACON SMA TRACON (SMA)
Mon 05:06:58 PM 39.9633 -75.2231 271° West 284 327 8,700 2,923 Climbing FAA TRACON SMA TRACON (SMA)
Mon 05:07:00 PM 39.9124 -75.6497 288° West  Level FlightAware Approximate
Mon 05:07:18 PM 39.9597 -75.2528 261° West 277 319 9,500  Level FAA TRACON SMA TRACON (SMA)
Mon 05:07:37 PM 39.9564 -75.2828 262° West 277 319 9,900 769 Climbing FAA TRACON SMA TRACON (SMA)
Mon 05:07:57 PM 39.9536 -75.3211 265° West 275 316 10,000 300 Climbing FAA TRACON SMA TRACON (SMA)
Mon 05:08:00 PM 39.9000 -75.7892 270° West  Level FlightAware Approximate
Mon 05:08:17 PM 39.9525 -75.3503 267° West 275 316 10,100  Level FAA TRACON SMA TRACON (SMA)
Mon 05:08:37 PM 39.9522 -75.3831 269° West 289 333 10,100  Level FAA TRACON SMA TRACON (SMA)
Mon 05:08:57 PM 39.9564 -75.4267 277° West 333 383 10,100 293 Level FAA TRACON SMA TRACON (SMA)
Mon 05:09:00 PM 39.9000 -75.9319 270° West  Level FlightAware Approximate
Mon 05:09:18 PM 39.9592 -75.4628 276° West 343 395 10,300  Level FAA TRACON SMA TRACON (SMA)
Mon 05:09:37 PM 39.9617 -75.5156 274° West 357 411 11,300 2,286 Climbing FAA TRACON SMA TRACON (SMA)
Mon 05:10:00 PM 39.9647 -75.5575 275° West 369 425 11,900 818 Climbing FAA TRACON SMA TRACON (SMA)
Mon 05:10:21 PM 39.9647 -75.5575 360° North 369 425 11,900 2,603 Level FAA TRACON SMA TRACON (SMA)
Mon 05:12:16 PM 39.9864 -75.8753 275° West 392 451 17,800 2,811 Climbing New York Center
Mon 05:13:16 PM 39.9986 -76.0225 276° West 397 457 20,100 2,281 Climbing New York Center
Mon 05:14:17 PM 40.0064 -76.1719 274° West 408 470 22,400 1,934 Climbing New York Center
Mon 05:15:17 PM 40.0106 -76.3078 272° West 413 475 24,000 1,831 Climbing New York Center
Mon 05:16:15 PM 40.0194 -76.4714 274° West 418 481 26,000 2,521 Climbing New York Center
Mon 05:17:16 PM 40.0278 -76.5994 275° West 418 481 29,000 1,983 Climbing New York Center
Mon 05:18:16 PM 40.0356 -76.7383 274° West 397 457 30,000 500 Climbing New York Center
Mon 05:19:16 PM 40.0431 -76.8772 274° West 391 450 30,000  Level New York Center
Mon 05:20:15 PM 40.0522 -77.0192 275° West 391 450 30,000  Level New York Center
Mon 05:21:16 PM 40.0569 -77.1633 272° West 391 450 30,000  Level New York Center
Mon 05:22:17 PM 40.0658 -77.3053 275° West 391 450 30,000  Level New York Center
Mon 05:24:37 PM 40.0856 -77.6494 274° West 393 452 30,000  Level Cleveland Center
Mon 05:25:37 PM 40.0956 -77.7931 275° West 399 459 30,000  Level Cleveland Center
Mon 05:26:37 PM 40.0975 -77.9586 271° West 413 475 30,000  Level Cleveland Center
Mon 05:27:37 PM 40.1047 -78.1022 274° West 413 475 30,000  Level Cleveland Center
Mon 05:28:37 PM 40.1119 -78.2483 274° West 413 475 30,000  Level Cleveland Center
Mon 05:29:37 PM 40.1442 -78.3967 286° West 413 475 30,000  Level Cleveland Center
Mon 05:30:37 PM 40.1781 -78.5397 287° West 413 475 30,000  Level Cleveland Center
Mon 05:31:37 PM 40.2119 -78.6856 287° West 413 475 30,000  Level Cleveland Center
Mon 05:32:37 PM 40.2433 -78.8314 286° West 413 475 30,000  Level Cleveland Center
Mon 05:33:37 PM 40.2789 -78.9803 287° West 418 481 30,000  Level Cleveland Center
Mon 05:34:37 PM 40.3122 -79.1264 287° West 418 481 30,000  Level Cleveland Center
Mon 05:35:37 PM 40.3472 -79.2756 287° West 418 481 30,000  Level Cleveland Center
Mon 05:36:37 PM 40.3844 -79.4192 289° West 418 481 30,000  Level Cleveland Center
Mon 05:37:37 PM 40.4169 -79.5686 286° West 418 481 30,000  Level Cleveland Center
Mon 05:38:37 PM 40.4517 -79.7208 287° West 418 481 30,000  Level Cleveland Center
Mon 05:39:37 PM 40.4839 -79.8681 286° West 418 481 30,000  Level Cleveland Center
Mon 05:40:37 PM 40.5139 -80.0150 285° West 418 481 30,000  Level Cleveland Center
Mon 05:41:37 PM 40.5481 -80.1650 287° West 418 481 30,000  Level Cleveland Center
Mon 05:42:37 PM 40.5775 -80.3125 285° West 418 481 30,000  Level Cleveland Center
Mon 05:43:37 PM 40.6133 -80.4600 288° West 418 481 30,000  Level Cleveland Center
Mon 05:44:37 PM 40.6406 -80.5942 285° West 423 487 30,000  Level Cleveland Center
Mon 05:45:37 PM 40.6778 -80.7392 289° West 418 481 30,000  Level Cleveland Center
Mon 05:46:37 PM 40.7400 -80.8708 302° West 418 481 30,000  Level Cleveland Center
Mon 05:47:37 PM 40.8044 -81.0028 303° West 425 489 30,000  Level Cleveland Center
Mon 05:48:37 PM 40.8664 -81.1350 302° West 431 496 30,000  Level Cleveland Center
Mon 05:49:37 PM 40.9050 -81.2836 289° West 425 489 30,000  Level Cleveland Center
Mon 05:50:37 PM 40.9269 -81.4489 280° West 413 475 30,000 -350 Level Cleveland Center
Mon 05:51:37 PM 40.9444 -81.6031 279° West 422 486 29,300 -850 Descending Cleveland Center
Mon 05:52:37 PM 40.9617 -81.7572 278° West 427 491 28,300 -650 Descending Cleveland Center
Mon 05:53:37 PM 40.9786 -81.9089 278° West 427 491 28,000 -150 Descending Cleveland Center
Mon 05:54:37 PM 41.0503 -82.0286 308° West 404 465 28,000 -350 Level Cleveland Center
Mon 05:55:37 PM 41.1539 -82.0778 340° North 411 473 27,300 -1,100 Descending Cleveland Center
Mon 05:56:37 PM 41.2678 -82.1275 342° North 416 479 25,800 -2,100 Descending Cleveland Center
Mon 05:57:37 PM 41.3733 -82.1881 337° Northwest 423 487 23,100 -2,700 Descending Cleveland Center
Mon 05:58:37 PM 41.4425 -82.3089 307° West 401 461 20,400 -1,550 Descending Cleveland Center
Mon 05:59:37 PM 41.5197 -82.4331 310° West 396 456 20,000 -1,300 Descending Cleveland Center
Mon 06:00:37 PM 41.5886 -82.5486 309° West 396 456 17,800 -2,650 Descending Cleveland Center
Mon 06:01:37 PM 41.6408 -82.6697 300° West 389 448 14,700 -2,850 Descending Cleveland Center
Mon 06:02:37 PM 41.6739 -82.7933 290° West 360 414 12,100 -1,733 Descending Cleveland Center
Mon 06:03:07 PM 41.7108 -82.8278 325° Northwest 326 375 12,100 -100 Level Cleveland Center
Mon 06:03:37 PM 41.7503 -82.8292 358° North 292 336 12,000  Descending Cleveland Center
Mon 06:04:08 PM 41.7939 -82.8392 350° North 304 350 12,100  Climbing Cleveland Center
Mon 06:04:37 PM 41.8225 -82.8736 318° Northwest 277 319 12,000  Descending Cleveland Center
Mon 06:05:10 PM 41.8317 -82.9353 281° West 289 333 12,100  Climbing Cleveland Center
Mon 06:05:37 PM 41.8350 -82.9772 276° West 264 304 12,000 -179 Descending Cleveland Center
Mon 06:06:17 PM 41.8419 -83.0414 278° West 238 274 11,900 -700 Descending Cleveland Center
Mon 06:06:37 PM 41.8414 -83.0694 268° West 259 298 11,300 -787 Descending Cleveland Center
Mon 06:07:18 PM 41.8567 -83.1314 288° West 239 275 11,100 -300 Descending Cleveland Center
Mon 06:07:37 PM 41.8689 -83.1431 325° Northwest 238 274 11,000  Descending Cleveland Center
Mon 06:08:20 PM 41.9161 -83.1728 335° Northwest 249 287 11,100  Climbing Cleveland Center
Mon 06:08:37 PM 41.9306 -83.1817 335° Northwest 217 250 11,000  Descending Cleveland Center
Mon 06:09:21 PM 41.9819 -83.2117 337° Northwest 248 285 11,100  Climbing Cleveland Center
Mon 06:09:37 PM 41.9881 -83.2175 325° Northwest 228 262 11,000  Descending Cleveland Center
Mon 06:10:16 PM 42.0375 -83.2475 336° Northwest 243 280 11,100  Climbing Cleveland Center
Mon 06:10:37 PM 42.0475 -83.2564 327° Northwest 238 274 11,000  Descending Cleveland Center
Mon 06:11:23 PM 42.1019 -83.2531 North 232 267 11,100 -222 Climbing Cleveland Center
Mon 06:11:58 PM 42.1350 -83.2336 24° Northeast 231 266 10,700 -1,091 Descending FAA TRACON SMA TRACON (SMA)
Mon 06:12:18 PM 42.1578 -83.2200 24° Northeast 231 266 10,100 -1,500 Descending FAA TRACON SMA TRACON (SMA)
Mon 06:12:38 PM 42.1756 -83.2097 23° Northeast 231 266 9,700 -1,385 Descending FAA TRACON SMA TRACON (SMA)
Mon 06:12:57 PM 42.1936 -83.1997 22° Northeast 228 262 9,200 -1,385 Descending FAA TRACON SMA TRACON (SMA)
Mon 06:13:17 PM 42.2114 -83.1894 23° Northeast 228 262 8,800 -1,317 Descending FAA TRACON SMA TRACON (SMA)
Mon 06:13:38 PM 42.2333 -83.1778 21° North 223 257 8,300 -1,024 Descending FAA TRACON SMA TRACON (SMA)
Mon 06:13:58 PM 42.2506 -83.1683 22° Northeast 220 253 8,100 -300 Descending FAA TRACON SMA TRACON (SMA)
Mon 06:14:18 PM 42.2722 -83.1567 22° Northeast 219 252 8,100 -150 Level FAA TRACON SMA TRACON (SMA)
Mon 06:14:38 PM 42.2886 -83.1472 23° Northeast 210 242 8,000 -750 Descending FAA TRACON SMA TRACON (SMA)
Mon 06:14:58 PM 42.3039 -83.1394 21° North 198 228 7,600 -1,317 Descending FAA TRACON SMA TRACON (SMA)
Mon 06:15:19 PM 42.3236 -83.1281 23° Northeast 197 227 7,100 -1,350 Descending FAA TRACON SMA TRACON (SMA)
Mon 06:15:38 PM 42.3392 -83.1194 22° Northeast 196 226 6,700 -1,231 Descending FAA TRACON SMA TRACON (SMA)
Mon 06:15:58 PM 42.3542 -83.1111 22° Northeast 193 222 6,300 -900 Descending FAA TRACON SMA TRACON (SMA)
Mon 06:16:18 PM 42.3736 -83.0997 23° Northeast 196 226 6,100 -300 Descending FAA TRACON SMA TRACON (SMA)
Mon 06:16:38 PM 42.3892 -83.0906 24° Northeast 198 228 6,100  Level FAA TRACON SMA TRACON (SMA)
Mon 06:16:58 PM 42.4047 -83.0817 23° Northeast 198 228 6,100  Level FAA TRACON SMA TRACON (SMA)
Mon 06:17:18 PM 42.4247 -83.0861 351° North 205 236 6,100  Level FAA TRACON SMA TRACON (SMA)
Mon 06:17:38 PM 42.4333 -83.1033 304° West 190 219 6,100  Level FAA TRACON SMA TRACON (SMA)
Mon 06:17:58 PM 42.4422 -83.1261 298° West 186 214 6,100 -150 Level FAA TRACON SMA TRACON (SMA)
Mon 06:18:18 PM 42.4414 -83.1456 267° West 176 203 6,000 -600 Descending FAA TRACON SMA TRACON (SMA)
Mon 06:18:38 PM 42.4347 -83.1678 248° West 173 199 5,700 -732 Descending FAA TRACON SMA TRACON (SMA)
Mon 06:18:59 PM 42.4264 -83.1819 231° Southwest 165 190 5,500 -900 Descending FAA TRACON SMA TRACON (SMA)
Mon 06:19:18 PM 42.4117 -83.1917 206° Southwest 163 188 5,100 -1,077 Descending FAA TRACON SMA TRACON (SMA)
Mon 06:19:38 PM 42.3997 -83.2008 210° Southwest 164 189 4,800 -900 Descending FAA TRACON SMA TRACON (SMA)
Mon 06:19:58 PM 42.3850 -83.2119 209° Southwest 165 190 4,500 -900 Descending FAA TRACON SMA TRACON (SMA)
Mon 06:20:18 PM 42.3722 -83.2211 208° Southwest 175 201 4,200 -900 Descending FAA TRACON SMA TRACON (SMA)

Login

Don't have an account? Register now (free) for customized features, flight alerts, and more!